Time;durP1;ratioP1;P1;durP2;ratioP2;P2;SDS_P1;SDS_P2;PMS_P1;PMS_P2;Temp;Humidity;BMP_temperature;BMP_pressure;BME280_temperature;BME280_humidity;BME280_pressure;Samples;Min_cycle;Max_cycle;Signal;HPM_P1;HPM_P2
2022/08/17 00:03:17;;;;;;;13.70;12.40;;;;;;;23.83;62.21;101029.31;6026217;29;20230;-72
2022/08/17 00:06:38;;;;;;;12.65;11.75;;;;;;;23.75;62.54;101032.31;6035534;29;20230;-72
2022/08/17 00:09:59;;;;;;;14.25;12.90;;;;;;;23.81;62.45;101031.44;6028391;29;20348;-71
2022/08/17 00:13:24;;;;;;;13.68;12.48;;;;;;;23.76;63.06;101028.47;6025724;29;20233;-71
2022/08/17 00:16:48;;;;;;;15.82;14.43;;;;;;;23.67;63.14;101029.81;6031994;29;20268;-72
2022/08/17 00:20:12;;;;;;;15.75;14.30;;;;;;;23.65;63.86;101039.34;6025592;29;20643;-71
2022/08/17 00:23:33;;;;;;;12.50;11.55;;;;;;;23.65;64.31;101033.84;6013108;29;20482;-72
2022/08/17 00:26:54;;;;;;;13.77;12.65;;;;;;;23.62;63.50;101028.75;6032733;29;20261;-72
2022/08/17 00:30:15;;;;;;;13.30;12.05;;;;;;;23.49;63.63;101029.63;6028345;29;20237;-72
2022/08/17 00:33:39;;;;;;;13.48;12.27;;;;;;;23.52;64.71;101034.72;6009649;29;20234;-72
2022/08/17 00:37:01;;;;;;;13.70;12.52;;;;;;;23.54;63.95;101034.50;6033316;29;20246;-72
2022/08/17 00:40:22;;;;;;;14.05;12.75;;;;;;;23.45;63.91;101024.78;6020068;29;20230;-73
2022/08/17 00:43:45;;;;;;;13.68;12.45;;;;;;;23.43;64.39;101018.63;6032910;29;20230;-71
2022/08/17 00:47:07;;;;;;;13.55;12.45;;;;;;;23.39;64.71;101029.25;6030832;29;20222;-72
2022/08/17 00:50:28;;;;;;;12.32;11.43;;;;;;;23.37;64.60;101025.88;6026078;29;20793;-72
2022/08/17 00:53:55;;;;;;;14.65;13.45;;;;;;;23.24;64.57;101020.34;6027382;29;20265;-71
2022/08/17 00:57:19;;;;;;;14.55;13.45;;;;;;;23.23;64.89;101021.44;6032519;29;20611;-72
2022/08/17 01:00:43;;;;;;;14.63;13.50;;;;;;;23.23;65.69;101028.84;6030825;29;20265;-72
2022/08/17 01:04:05;;;;;;;15.13;13.80;;;;;;;23.08;65.71;101031.81;6031133;29;20230;-71
2022/08/17 01:07:27;;;;;;;13.52;12.45;;;;;;;23.12;65.63;101021.22;6038205;29;20238;-72
2022/08/17 01:10:52;;;;;;;14.60;13.48;;;;;;;23.09;65.66;101028.03;6035349;29;20324;-72
2022/08/17 01:14:13;;;;;;;14.63;13.15;;;;;;;23.03;65.65;101031.59;6035472;29;20234;-72
2022/08/17 01:17:34;;;;;;;16.75;15.35;;;;;;;22.93;66.37;101026.53;6031201;29;20603;-71
2022/08/17 01:20:58;;;;;;;14.00;12.90;;;;;;;22.96;66.03;101033.53;6033205;29;20237;-71
2022/08/17 01:24:21;;;;;;;13.98;12.75;;;;;;;23.04;66.17;101030.56;6036415;29;20482;-72
2022/08/17 01:27:43;;;;;;;15.40;13.60;;;;;;;22.99;66.11;101044.09;6034096;29;20556;-72
2022/08/17 01:31:07;;;;;;;15.18;13.98;;;;;;;22.96;66.37;101034.38;6040387;29;20250;-71
2022/08/17 01:34:28;;;;;;;15.18;13.98;;;;;;;22.92;66.64;101038.63;6024694;29;20454;-72
2022/08/17 01:37:50;;;;;;;16.02;14.73;;;;;;;22.83;67.15;101039.03;6042529;29;20246;-72
2022/08/17 01:41:15;;;;;;;16.50;15.20;;;;;;;22.84;66.88;101041.56;6037560;29;20234;-73
2022/08/17 01:44:37;;;;;;;16.20;14.88;;;;;;;22.87;66.37;101041.16;6039240;29;20340;-74
2022/08/17 01:47:57;;;;;;;15.77;14.38;;;;;;;22.74;67.23;101045.78;6037062;29;20306;-72
2022/08/17 01:51:20;;;;;;;16.35;14.93;;;;;;;22.75;67.61;101047.50;6033220;29;20229;-72
2022/08/17 01:54:44;;;;;;;15.75;14.55;;;;;;;22.79;66.79;101051.50;6033143;29;20325;-72
2022/08/17 01:58:08;;;;;;;16.10;14.63;;;;;;;22.79;67.34;101044.13;6039026;29;22585;-72
2022/08/17 02:01:32;;;;;;;15.63;14.50;;;;;;;22.73;67.51;101044.97;6038440;29;20234;-72
2022/08/17 02:04:53;;;;;;;16.92;15.25;;;;;;;22.66;67.66;101040.50;6037280;29;20234;-72
2022/08/17 02:08:14;;;;;;;16.25;15.02;;;;;;;22.66;67.66;101043.25;6041459;29;20237;-72
2022/08/17 02:11:38;;;;;;;16.63;15.43;;;;;;;22.52;68.54;101042.38;6039102;29;20242;-73
2022/08/17 02:15:00;;;;;;;15.75;14.55;;;;;;;22.61;67.85;101040.31;6039346;29;20238;-72
2022/08/17 02:18:21;;;;;;;14.52;13.50;;;;;;;22.56;68.10;101040.03;6040127;29;20245;-72
2022/08/17 02:21:44;;;;;;;16.48;15.07;;;;;;;22.45;68.33;101046.16;6035434;29;20238;-72
2022/08/17 02:25:08;;;;;;;15.77;14.30;;;;;;;22.39;68.73;101041.50;6031781;29;20628;-72
2022/08/17 02:28:29;;;;;;;17.52;16.17;;;;;;;22.33;69.11;101040.44;6037224;29;20234;-72
2022/08/17 02:31:52;;;;;;;15.75;14.55;;;;;;;22.39;68.85;101045.09;6029679;29;20222;-71
2022/08/17 02:35:13;;;;;;;16.95;15.55;;;;;;;22.55;68.17;101041.94;6035986;29;20245;-72
2022/08/17 02:38:34;;;;;;;18.13;16.73;;;;;;;22.56;68.26;101031.78;6033087;29;20553;-72
2022/08/17 02:42:00;;;;;;;18.48;17.10;;;;;;;22.53;68.46;101038.56;6031592;29;20612;-72
2022/08/17 02:45:23;;;;;;;17.75;16.35;;;;;;;22.58;67.96;101041.56;6032257;29;20261;-72
2022/08/17 02:48:45;;;;;;;18.17;16.92;;;;;;;22.47;68.74;101036.66;6038007;29;20233;-72
2022/08/17 02:52:07;;;;;;;17.13;15.98;;;;;;;22.53;68.61;101029.50;6032323;29;20241;-72
2022/08/17 02:55:32;;;;;;;18.40;17.00;;;;;;;22.46;68.93;101031.38;6032538;29;20619;-72
2022/08/17 02:58:53;;;;;;;20.55;18.90;;;;;;;22.45;68.65;101033.25;6038726;29;20279;-72
2022/08/17 03:02:14;;;;;;;18.77;17.27;;;;;;;22.38;69.03;101037.06;6034522;29;20245;-72
2022/08/17 03:05:38;;;;;;;21.00;19.27;;;;;;;22.25;69.37;101030.50;6036172;29;20226;-72
2022/08/17 03:08:59;;;;;;;21.92;20.17;;;;;;;22.21;69.63;101036.63;6034940;29;20254;-72
2022/08/17 03:12:19;;;;;;;18.80;17.27;;;;;;;22.32;69.08;101040.66;6039150;29;20234;-72
2022/08/17 03:15:43;;;;;;;27.88;25.52;;;;;;;22.13;69.93;101031.31;6031421;29;20337;-72
2022/08/17 03:19:04;;;;;;;24.25;22.35;;;;;;;22.26;69.11;101036.81;6032771;29;20246;-72
2022/08/17 03:22:28;;;;;;;20.95;19.15;;;;;;;22.26;69.41;101032.19;6038006;29;20237;-72
2022/08/17 03:25:49;;;;;;;22.60;20.60;;;;;;;22.03;70.28;101039.06;6029009;29;20234;-71
2022/08/17 03:29:10;;;;;;;21.10;19.33;;;;;;;22.14;69.96;101031.09;6031938;29;20258;-72
2022/08/17 03:32:37;;;;;;;24.65;22.75;;;;;;;21.97;70.87;101048.16;6036599;29;20233;-72
2022/08/17 03:35:59;;;;;;;20.88;19.27;;;;;;;22.08;70.33;101053.06;6031216;29;20234;-71
2022/08/17 03:39:21;;;;;;;20.08;18.52;;;;;;;22.13;69.94;101048.63;6034864;29;20620;-71
2022/08/17 03:42:43;;;;;;;22.92;20.92;;;;;;;22.04;70.68;101046.28;6038130;29;20245;-72
2022/08/17 03:57:04;;;;;;;36.78;33.95;;;;;;;22.03;70.41;101052.81;6035419;29;20237;-72
2022/08/17 04:00:26;;;;;;;27.40;25.00;;;;;;;22.02;70.38;101051.13;6035228;29;20258;-71
2022/08/17 04:03:47;;;;;;;25.38;23.48;;;;;;;21.95;70.39;101047.50;6027944;29;20242;-72
2022/08/17 04:07:09;;;;;;;21.98;20.35;;;;;;;21.92;70.46;101051.53;6037397;29;20527;-72
2022/08/17 04:10:30;;;;;;;21.63;20.02;;;;;;;21.96;70.37;101049.22;6034141;29;20253;-72
2022/08/17 04:13:52;;;;;;;22.75;20.85;;;;;;;21.91;70.80;101055.31;6034570;29;20229;-72
2022/08/17 04:17:13;;;;;;;20.30;18.80;;;;;;;21.89;70.90;101049.19;6035412;29;20352;-72
2022/08/17 04:20:34;;;;;;;21.30;19.70;;;;;;;21.93;70.63;101050.47;6030721;29;20249;-72
2022/08/17 04:23:56;;;;;;;21.35;19.75;;;;;;;22.01;70.70;101055.78;6028184;29;20230;-72
2022/08/17 04:27:17;;;;;;;23.67;21.52;;;;;;;22.14;69.96;101047.59;6030552;29;20246;-72
2022/08/17 04:30:39;;;;;;;23.27;21.38;;;;;;;22.07;70.29;101060.44;6035861;29;20233;-71
2022/08/17 04:34:00;;;;;;;21.67;20.02;;;;;;;22.13;70.13;101061.53;6035071;29;20233;-72
2022/08/17 04:37:21;;;;;;;21.17;19.40;;;;;;;22.15;69.97;101064.91;6038599;29;20705;-72
2022/08/17 04:44:20;;;;;;;23.00;21.08;;;;;;;22.26;69.83;101059.66;6034892;29;20585;-72
2022/08/17 04:47:43;;;;;;;22.40;20.60;;;;;;;22.36;69.24;101072.16;6035646;29;20485;-72
2022/08/17 04:51:08;;;;;;;21.80;20.15;;;;;;;22.34;69.19;101066.88;6038885;29;20238;-72
2022/08/17 04:54:29;;;;;;;22.15;20.35;;;;;;;22.32;69.51;101073.63;6041493;29;20230;-72
2022/08/17 04:57:50;;;;;;;22.08;20.23;;;;;;;22.47;69.04;101071.53;6035373;29;20238;-72
2022/08/17 05:01:11;;;;;;;24.60;22.42;;;;;;;22.42;68.90;101077.66;6030713;29;20230;-72
2022/08/17 05:04:33;;;;;;;21.85;20.35;;;;;;;22.46;68.26;101067.09;6038007;29;20390;-72
2022/08/17 05:07:56;;;;;;;21.38;19.77;;;;;;;22.48;68.45;101079.59;6035625;29;20238;-73
2022/08/17 05:11:17;;;;;;;35.90;33.25;;;;;;;22.53;68.39;101076.22;6035761;29;20325;-72
2022/08/17 05:14:39;;;;;;;35.63;32.88;;;;;;;22.55;68.71;101074.91;6035545;29;20226;-72
2022/08/17 05:18:00;;;;;;;25.55;23.25;;;;;;;22.53;68.52;101078.97;6035280;29;20231;-71
2022/08/17 05:21:23;;;;;;;24.52;22.63;;;;;;;22.75;67.44;101070.34;6036318;29;20238;-71
2022/08/17 05:24:44;;;;;;;24.17;22.15;;;;;;;22.84;67.51;101076.47;6047503;29;20238;-71
2022/08/17 05:28:06;;;;;;;23.17;20.67;;;;;;;22.95;67.66;101075.81;6038001;29;20249;-71
2022/08/17 05:31:28;;;;;;;26.90;24.90;;;;;;;23.11;66.39;101069.91;6038013;29;20234;-71
2022/08/17 05:34:49;;;;;;;32.25;29.63;;;;;;;23.01;66.80;101075.84;6035919;29;20539;-72
2022/08/17 05:38:11;;;;;;;37.08;34.08;;;;;;;22.95;67.19;101084.06;6026024;29;20244;-72
2022/08/17 05:41:32;;;;;;;31.23;28.80;;;;;;;22.96;67.14;101080.28;6036090;29;20229;-72
2022/08/17 05:44:56;;;;;;;27.25;25.30;;;;;;;22.97;67.38;101092.97;6024394;29;20624;-70
2022/08/17 05:48:18;;;;;;;25.23;23.42;;;;;;;23.11;66.78;101086.44;6027078;29;20604;-70
2022/08/17 05:52:03;;;;;;;23.90;21.52;;;;;;;23.23;66.89;101083.84;6029947;29;20234;-71
2022/08/17 05:55:31;;;;;;;23.92;22.02;;;;;;;23.28;65.80;101087.66;6034048;29;21001;-72
2022/08/17 05:59:02;;;;;;;22.20;20.50;;;;;;;23.48;65.45;101091.28;6029378;29;20762;-71
2022/08/17 06:02:36;;;;;;;20.58;18.85;;;;;;;23.55;64.90;101096.75;6028191;29;20650;-71
2022/08/17 06:06:15;;;;;;;20.95;19.35;;;;;;;23.65;64.92;101098.00;6026256;29;20241;-74
2022/08/17 06:09:40;;;;;;;20.52;19.00;;;;;;;23.68;64.58;101100.31;6022341;29;20238;-69
2022/08/17 06:13:14;;;;;;;20.02;18.52;;;;;;;23.89;64.14;101112.09;6027803;29;20254;-70
2022/08/17 06:16:39;;;;;;;19.33;17.73;;;;;;;23.90;64.06;101102.78;6022896;29;20531;-69
2022/08/17 06:20:05;;;;;;;20.30;18.75;;;;;;;24.06;63.74;101096.81;6025725;29;20265;-72
2022/08/17 06:23:33;;;;;;;18.92;17.45;;;;;;;24.37;63.37;101099.63;6022037;29;20941;-70
2022/08/17 06:27:01;;;;;;;19.42;17.98;;;;;;;24.31;62.35;101092.25;6017479;29;20241;-70
2022/08/17 06:30:27;;;;;;;19.60;17.98;;;;;;;24.43;63.03;101093.22;6025918;29;20629;-70
2022/08/17 06:33:49;;;;;;;19.70;18.17;;;;;;;24.43;62.49;101095.97;6020227;29;20229;-73
2022/08/17 06:37:27;;;;;;;20.02;18.52;;;;;;;24.55;61.80;101097.81;6021246;29;20234;-73
2022/08/17 06:40:58;;;;;;;20.92;19.10;;;;;;;24.58;61.50;101104.81;6035421;29;20261;-70
2022/08/17 06:44:28;;;;;;;17.08;15.77;;;;;;;24.72;61.43;101102.81;6024181;29;20242;-72
2022/08/17 06:47:56;;;;;;;19.17;17.77;;;;;;;24.78;60.91;101100.06;6023015;29;20253;-69
2022/08/17 06:51:23;;;;;;;27.75;25.65;;;;;;;24.99;60.90;101110.69;6021845;29;20241;-69
2022/08/17 06:54:54;;;;;;;19.73;17.88;;;;;;;25.22;60.29;101110.91;6020600;29;20587;-69
2022/08/17 06:58:21;;;;;;;17.25;15.73;;;;;;;25.07;59.92;101118.72;6030676;29;20249;-69
2022/08/17 07:01:43;;;;;;;15.85;14.63;;;;;;;25.11;59.88;101114.44;6034394;29;20222;-71
2022/08/17 07:05:07;;;;;;;13.75;12.65;;;;;;;25.02;59.91;101112.16;6039004;29;20620;-74
2022/08/17 07:08:36;;;;;;;13.00;12.00;;;;;;;25.28;59.84;101100.91;6022027;29;20241;-71
2022/08/17 07:12:03;;;;;;;12.43;10.95;;;;;;;25.55;58.66;101113.41;6021158;29;20256;-73
2022/08/17 07:15:32;;;;;;;12.20;11.18;;;;;;;25.96;57.81;101110.81;6024661;29;20608;-69
2022/08/17 07:18:55;;;;;;;13.98;12.98;;;;;;;25.74;57.11;101108.75;6026957;29;20242;-70
2022/08/17 07:22:26;;;;;;;10.65;9.85;;;;;;;26.02;57.26;101107.13;6023967;29;20241;-69
2022/08/17 07:25:49;;;;;;;10.98;9.93;;;;;;;26.29;56.14;101107.66;6022174;29;20318;-70
2022/08/17 07:29:15;;;;;;;10.82;9.85;;;;;;;26.30;56.58;101117.66;6027537;29;20238;-70
2022/08/17 07:32:41;;;;;;;10.13;9.43;;;;;;;26.73;55.52;101103.63;6024440;29;20801;-70
2022/08/17 07:36:03;;;;;;;11.30;10.45;;;;;;;26.84;54.84;101100.91;6035776;29;20225;-71
2022/08/17 07:39:27;;;;;;;11.13;10.32;;;;;;;27.08;54.15;101100.97;6023434;29;20338;-70
2022/08/17 07:43:03;;;;;;;9.50;8.80;;;;;;;27.13;54.53;101109.38;6034404;29;20230;-69
2022/08/17 07:50:26;;;;;;;7.63;7.03;;;;;;;27.39;54.49;101100.66;6008855;29;20633;-70
2022/08/17 07:53:48;;;;;;;13.32;8.80;;;;;;;27.47;53.58;101108.59;6028083;29;20233;-70
2022/08/17 07:57:32;;;;;;;9.00;8.27;;;;;;;27.48;53.24;101107.50;6030162;29;20261;-72
2022/08/17 08:01:07;;;;;;;8.35;7.78;;;;;;;27.71;52.92;101115.81;6014052;29;20325;-67
2022/08/17 08:04:35;;;;;;;8.05;7.40;;;;;;;27.63;52.40;101118.94;6019676;29;20234;-68
2022/08/17 08:08:00;;;;;;;8.88;8.13;;;;;;;27.82;51.97;101108.56;6022987;29;20249;-68
2022/08/17 08:11:31;;;;;;;8.85;7.95;;;;;;;27.81;51.05;101115.19;6020429;29;20238;-66
2022/08/17 08:14:56;;;;;;;9.05;8.35;;;;;;;28.02;51.62;101115.41;6030216;29;20241;-67
2022/08/17 08:18:22;;;;;;;7.35;6.78;;;;;;;28.26;51.44;101113.44;6019811;29;20238;-69
2022/08/17 08:21:51;;;;;;;7.35;6.55;;;;;;;28.24;49.93;101121.16;6021919;29;20529;-68
2022/08/17 08:25:25;;;;;;;7.70;7.00;;;;;;;28.26;50.54;101125.38;6033825;29;20237;-66
2022/08/17 08:29:00;;;;;;;8.27;7.57;;;;;;;28.38;50.60;101126.16;6030943;29;20237;-68
2022/08/17 08:32:39;;;;;;;7.55;7.05;;;;;;;28.60;50.38;101129.09;6030805;29;20308;-68
2022/08/17 08:36:06;;;;;;;7.28;6.53;;;;;;;28.61;50.57;101133.59;6034567;29;20519;-68
2022/08/17 08:39:35;;;;;;;6.88;6.28;;;;;;;28.66;49.77;101128.16;6028412;29;20284;-70
2022/08/17 08:43:08;;;;;;;6.78;6.32;;;;;;;28.68;49.28;101134.28;6029362;29;20810;-71
2022/08/17 08:46:39;;;;;;;8.15;6.25;;;;;;;28.60;49.27;101140.22;6025386;29;20316;-69
2022/08/17 08:50:11;;;;;;;6.85;6.25;;;;;;;28.61;49.07;101139.13;6027515;29;20238;-68
2022/08/17 08:53:37;;;;;;;6.93;6.32;;;;;;;28.62;47.64;101143.56;6027246;29;20229;-67
2022/08/17 08:57:09;;;;;;;6.82;6.28;;;;;;;29.01;47.02;101147.38;6024281;29;20246;-68
2022/08/17 09:00:35;;;;;;;6.18;5.57;;;;;;;28.34;46.76;101138.84;6029434;29;20230;-66
2022/08/17 09:04:13;;;;;;;6.60;6.00;;;;;;;28.48;46.94;101143.00;6029476;29;20253;-67
2022/08/17 09:07:47;;;;;;;5.72;5.32;;;;;;;28.52;46.97;101150.84;6031753;29;20614;-69
2022/08/17 09:11:17;;;;;;;6.00;5.60;;;;;;;28.95;46.59;101151.16;6035088;29;20899;-71
2022/08/17 09:14:43;;;;;;;6.68;6.07;;;;;;;28.95;45.97;101148.38;6029784;29;20344;-68
2022/08/17 09:18:10;;;;;;;5.95;5.55;;;;;;;29.24;45.85;101150.03;6034086;29;20603;-67
2022/08/17 09:21:40;;;;;;;6.25;5.75;;;;;;;29.53;45.22;101150.78;6030988;29;20237;-68
2022/08/17 09:25:09;;;;;;;7.20;6.60;;;;;;;29.58;45.19;101148.09;6034915;29;20645;-70
2022/08/17 09:28:35;;;;;;;8.20;7.30;;;;;;;29.35;45.63;101153.84;6040334;29;20636;-69
2022/08/17 09:31:58;;;;;;;7.57;6.97;;;;;;;29.88;45.02;101151.34;6026574;29;20333;-70
2022/08/17 09:35:22;;;;;;;9.57;8.88;;;;;;;30.05;45.09;101154.06;6035695;29;20711;-69
2022/08/17 09:38:55;;;;;;;10.60;8.63;;;;;;;30.24;45.08;101147.09;6044069;29;20639;-68
2022/08/17 09:42:24;;;;;;;6.78;6.28;;;;;;;30.36;44.46;101142.28;6042553;29;20651;-70
2022/08/17 09:45:49;;;;;;;7.05;6.45;;;;;;;30.56;44.56;101137.78;6037133;29;20308;-70
2022/08/17 09:49:16;;;;;;;6.85;6.30;;;;;;;30.74;44.41;101140.22;6039567;29;20268;-69
2022/08/17 09:52:38;;;;;;;7.35;6.75;;;;;;;30.93;43.00;101142.66;6048359;29;20237;-69
2022/08/17 09:56:13;;;;;;;6.65;6.15;;;;;;;31.20;42.63;101130.38;6044116;29;20225;-68
2022/08/17 09:59:50;;;;;;;8.63;7.57;;;;;;;30.99;42.29;101131.31;6037969;29;20238;-68
2022/08/17 10:03:27;;;;;;;7.10;6.45;;;;;;;31.04;42.00;101136.91;6028788;29;20249;-68
2022/08/17 10:06:57;;;;;;;6.88;6.28;;;;;;;30.90;42.44;101127.31;6038574;29;20237;-68
2022/08/17 10:10:23;;;;;;;7.32;6.80;;;;;;;31.37;41.18;101136.66;6038888;29;20230;-73
2022/08/17 10:14:04;;;;;;;6.15;5.65;;;;;;;31.49;40.67;101126.19;6042306;29;20238;-70
2022/08/17 10:17:35;;;;;;;6.57;6.10;;;;;;;32.11;40.17;101125.44;6033207;29;20246;-69
2022/08/17 10:28:22;;;;;;;6.30;5.78;;;;;;;31.32;43.99;101124.63;6021532;29;20253;-74
2022/08/17 10:31:47;;;;;;;7.53;6.93;;;;;;;31.04;42.60;101125.75;6023786;29;20241;-71
2022/08/17 10:35:32;;;;;;;7.70;6.97;;;;;;;30.58;43.18;101120.84;6035973;29;20233;-71
2022/08/17 10:39:08;;;;;;;8.10;7.50;;;;;;;30.14;43.06;101122.78;6038260;29;20257;-74
2022/08/17 10:42:32;;;;;;;7.78;7.18;;;;;;;30.54;42.72;101122.47;6041519;29;20234;-73
2022/08/17 10:46:01;;;;;;;9.15;6.43;;;;;;;30.31;42.84;101117.19;6028103;29;20632;-74
2022/08/17 10:49:32;;;;;;;6.68;6.10;;;;;;;30.35;43.20;101118.34;6041654;29;20268;-72
2022/08/17 10:52:54;;;;;;;7.95;5.95;;;;;;;29.98;41.27;101126.44;6037357;29;20738;-72
2022/08/17 10:56:43;;;;;;;6.22;5.43;;;;;;;29.98;42.82;101124.50;6040220;29;20257;-74
2022/08/17 11:00:11;;;;;;;6.43;5.40;;;;;;;30.44;42.09;101113.97;6043319;29;21760;-73
2022/08/17 11:03:32;;;;;;;9.68;6.10;;;;;;;30.17;41.08;101113.91;6040411;29;20309;-73
2022/08/17 11:07:06;;;;;;;12.30;5.95;;;;;;;30.35;41.88;101119.19;6045196;29;20225;-73
2022/08/17 11:10:49;;;;;;;6.07;5.57;;;;;;;30.94;40.68;101113.72;6039397;29;20312;-73
2022/08/17 11:14:22;;;;;;;5.93;5.53;;;;;;;31.14;39.06;101122.25;6028127;29;20250;-73
2022/08/17 11:18:05;;;;;;;6.55;6.00;;;;;;;29.93;40.17;101116.13;6020081;29;20331;-68
2022/08/17 11:21:50;;;;;;;6.97;6.38;;;;;;;30.43;40.74;101121.50;6030760;29;20360;-68
2022/08/17 11:25:15;;;;;;;5.47;5.05;;;;;;;30.68;40.53;101112.59;6031166;29;20239;-68
2022/08/17 11:28:47;;;;;;;7.95;5.45;;;;;;;30.26;39.62;101112.34;6029840;29;20249;-68
2022/08/17 11:32:12;;;;;;;7.00;6.50;;;;;;;30.34;40.16;101111.06;6030236;29;20237;-70
2022/08/17 11:35:43;;;;;;;6.78;6.15;;;;;;;30.41;41.09;101100.59;6036519;29;20233;-70
2022/08/17 11:39:21;;;;;;;7.63;7.13;;;;;;;30.19;40.29;101108.06;6028663;29;20241;-69
2022/08/17 11:43:08;;;;;;;6.60;6.18;;;;;;;30.88;40.21;101090.53;6032880;29;20245;-69
2022/08/17 11:54:37;;;;;;;6.68;6.03;;;;;;;31.70;38.87;101099.28;6033338;29;20244;-70
2022/08/17 11:58:01;;;;;;;6.43;5.65;;;;;;;31.49;39.62;101105.81;6036179;29;20245;-72
2022/08/17 12:01:55;;;;;;;6.93;6.43;;;;;;;30.79;40.43;101101.28;6033991;29;20234;-70
2022/08/17 12:05:32;;;;;;;6.47;5.90;;;;;;;30.48;39.66;101098.44;6026153;29;20233;-70
2022/08/17 12:08:56;;;;;;;6.28;5.88;;;;;;;30.66;40.01;101098.94;6037027;29;20242;-72
2022/08/17 12:12:23;;;;;;;6.13;5.80;;;;;;;32.80;36.47;101092.44;6033540;29;20624;-70
2022/08/17 12:15:51;;;;;;;5.38;4.97;;;;;;;34.81;33.42;101091.13;6030775;29;20261;-73
2022/08/17 12:19:22;;;;;;;6.00;5.55;;;;;;;36.08;30.68;101084.88;6032854;29;20237;-69
2022/08/17 12:22:53;;;;;;;5.25;4.88;;;;;;;36.02;30.76;101083.28;6029896;29;20241;-70
2022/08/17 12:26:18;;;;;;;5.53;5.13;;;;;;;34.21;33.48;101089.50;6024820;29;20241;-69
2022/08/17 12:29:43;;;;;;;6.35;5.72;;;;;;;32.56;35.98;101088.53;6033631;29;20253;-68
2022/08/17 12:33:13;;;;;;;5.85;5.45;;;;;;;31.65;37.15;101092.84;6032212;29;20759;-68
2022/08/17 12:36:35;;;;;;;6.38;5.97;;;;;;;31.35;37.74;101093.44;6041773;29;20891;-69
2022/08/17 12:39:59;;;;;;;7.00;5.35;;;;;;;31.07;38.21;101093.75;6036994;29;20854;-69
2022/08/17 12:43:23;;;;;;;5.57;5.18;;;;;;;30.69;38.80;101100.34;6033425;29;20246;-71
2022/08/17 12:46:49;;;;;;;6.15;5.55;;;;;;;30.55;37.86;101093.50;6033977;29;20460;-67
2022/08/17 12:50:15;;;;;;;5.57;5.00;;;;;;;30.19;38.99;101100.56;6030360;29;23224;-67
2022/08/17 12:53:41;;;;;;;8.25;7.63;;;;;;;30.48;39.11;101090.06;6039175;29;20558;-70
2022/08/17 12:57:08;;;;;;;6.55;5.93;;;;;;;30.36;38.91;101097.75;6039356;29;20225;-69
2022/08/17 13:00:32;;;;;;;6.40;5.15;;;;;;;30.32;39.36;101093.81;6029898;29;20712;-72
2022/08/17 13:03:58;;;;;;;5.68;5.18;;;;;;;30.48;38.57;101093.72;6028154;29;20313;-68
2022/08/17 13:07:28;;;;;;;6.05;5.55;;;;;;;30.24;38.15;101089.53;6044320;29;20242;-68
2022/08/17 13:10:56;;;;;;;5.70;4.90;;;;;;;30.48;38.83;101092.88;6034403;29;20312;-70
2022/08/17 13:14:18;;;;;;;5.57;5.07;;;;;;;30.08;39.73;101090.44;6041038;29;20631;-69
2022/08/17 13:17:40;;;;;;;7.88;5.72;;;;;;;30.15;40.00;101079.09;6043425;29;20581;-73
2022/08/17 13:21:01;;;;;;;5.68;5.15;;;;;;;30.19;40.43;101071.91;6030330;29;20233;-70
2022/08/17 13:24:25;;;;;;;5.97;5.47;;;;;;;30.23;40.51;101073.09;6026398;29;20612;-68
2022/08/17 13:27:50;;;;;;;5.95;5.40;;;;;;;30.10;40.68;101065.13;6032159;29;20229;-69
2022/08/17 13:31:22;;;;;;;5.18;4.78;;;;;;;30.02;40.67;101068.38;6037765;29;20229;-69
2022/08/17 13:34:45;;;;;;;5.22;4.82;;;;;;;30.02;41.03;101068.38;6038278;29;20312;-70
2022/08/17 13:38:09;;;;;;;5.53;5.13;;;;;;;29.92;40.70;101055.16;6041952;29;20249;-71
2022/08/17 13:41:33;;;;;;;5.20;4.80;;;;;;;29.93;40.91;101049.38;6035444;29;20229;-71
2022/08/17 13:44:56;;;;;;;6.45;5.68;;;;;;;29.92;41.19;101047.69;6034673;29;20675;-68
2022/08/17 13:48:22;;;;;;;5.43;5.10;;;;;;;30.06;41.15;101045.34;6031086;29;20751;-68
2022/08/17 13:51:45;;;;;;;9.80;9.10;;;;;;;29.94;41.12;101047.41;6041068;29;20234;-69
2022/08/17 13:55:15;;;;;;;9.65;8.95;;;;;;;29.99;41.28;101048.34;6040751;29;20246;-68
2022/08/17 13:58:40;;;;;;;6.28;5.78;;;;;;;30.00;40.70;101047.22;6044540;29;20257;-70
2022/08/17 14:02:03;;;;;;;5.68;5.18;;;;;;;30.04;40.72;101041.16;6037877;29;20230;-68
2022/08/17 14:05:24;;;;;;;5.68;5.28;;;;;;;29.91;40.74;101043.22;6042258;29;20257;-69
2022/08/17 14:08:45;;;;;;;4.80;4.50;;;;;;;30.24;42.00;101044.16;6037641;29;20234;-74
2022/08/17 14:12:11;;;;;;;5.25;4.85;;;;;;;30.32;41.42;101046.50;6025161;29;20507;-70
2022/08/17 14:15:32;;;;;;;5.43;4.95;;;;;;;30.24;41.11;101041.38;6042030;29;20230;-71
2022/08/17 14:18:55;;;;;;;7.55;5.20;;;;;;;30.22;40.93;101038.00;6047782;29;20241;-70
2022/08/17 14:22:22;;;;;;;5.80;5.40;;;;;;;30.36;40.62;101033.75;6048289;29;20616;-70
2022/08/17 14:25:44;;;;;;;6.10;5.57;;;;;;;30.38;41.00;101039.88;6043300;29;20233;-70
2022/08/17 14:29:06;;;;;;;5.82;5.30;;;;;;;30.39;40.26;101044.34;6045621;29;20242;-70
2022/08/17 14:32:30;;;;;;;5.43;4.85;;;;;;;30.33;40.01;101037.88;6047432;29;20604;-70
2022/08/17 14:35:52;;;;;;;6.97;5.55;;;;;;;30.29;40.55;101033.91;6044945;29;20566;-71
2022/08/17 14:39:14;;;;;;;5.95;5.50;;;;;;;30.30;40.59;101037.56;6042387;29;20623;-71
2022/08/17 14:42:36;;;;;;;5.65;5.07;;;;;;;30.15;40.99;101040.16;6042984;29;20320;-71
2022/08/17 14:45:58;;;;;;;7.88;6.03;;;;;;;30.11;41.16;101036.22;6044070;29;20242;-71
2022/08/17 14:49:19;;;;;;;5.82;5.43;;;;;;;30.10;41.25;101046.53;6043345;29;20504;-70
2022/08/17 14:52:42;;;;;;;6.18;5.60;;;;;;;30.12;41.24;101035.97;6039682;29;20246;-71
2022/08/17 14:56:03;;;;;;;5.35;4.95;;;;;;;30.23;41.31;101031.34;6041568;29;20238;-71
2022/08/17 14:59:25;;;;;;;5.93;5.50;;;;;;;30.13;41.77;101028.44;6039173;29;20238;-70
2022/08/17 15:02:49;;;;;;;6.22;5.70;;;;;;;30.02;42.42;101022.75;6040459;29;20234;-70
2022/08/17 15:06:14;;;;;;;6.25;5.65;;;;;;;29.87;42.28;101016.19;6048854;29;20241;-70
2022/08/17 15:09:36;;;;;;;5.82;5.43;;;;;;;29.90;42.14;101013.72;6046786;29;20230;-71
2022/08/17 15:12:57;;;;;;;6.53;5.50;;;;;;;29.80;42.30;101013.59;6045223;29;20234;-71
2022/08/17 15:16:18;;;;;;;7.13;6.43;;;;;;;29.67;43.10;101013.97;6044314;29;20238;-70
2022/08/17 15:19:40;;;;;;;7.45;6.78;;;;;;;29.56;44.55;101011.31;6043222;29;20249;-71
2022/08/17 15:23:01;;;;;;;8.52;7.85;;;;;;;29.55;45.44;101004.06;6045221;29;20253;-70
2022/08/17 15:26:23;;;;;;;12.90;11.73;;;;;;;29.60;45.64;101007.75;6046944;29;20234;-71
2022/08/17 15:29:44;;;;;;;9.35;8.68;;;;;;;29.48;46.73;101007.03;6045240;29;20234;-70
2022/08/17 15:33:05;;;;;;;12.02;10.93;;;;;;;29.53;46.83;101004.31;6043118;29;20233;-71
2022/08/17 15:36:26;;;;;;;8.32;7.53;;;;;;;29.42;47.36;100999.72;6044362;29;20605;-71
2022/08/17 15:39:47;;;;;;;8.57;7.88;;;;;;;29.60;47.62;100996.63;6030803;29;20258;-69
2022/08/17 15:43:13;;;;;;;10.60;9.82;;;;;;;29.64;47.81;100996.97;6033953;29;20245;-70
2022/08/17 15:46:34;;;;;;;11.85;10.05;;;;;;;29.54;49.74;100992.09;6046209;29;20229;-69
2022/08/17 15:49:55;;;;;;;11.75;10.57;;;;;;;29.71;49.76;100987.31;6032446;29;20241;-70
2022/08/17 15:53:16;;;;;;;9.18;8.48;;;;;;;29.68;49.84;100984.22;6042294;29;20329;-71
2022/08/17 15:56:37;;;;;;;10.50;7.95;;;;;;;29.71;49.83;100990.09;6041706;29;20234;-71
2022/08/17 16:00:00;;;;;;;11.35;10.32;;;;;;;29.99;49.15;100977.94;6045965;29;20814;-70
2022/08/17 16:03:20;;;;;;;8.63;7.75;;;;;;;29.90;49.71;100977.56;6040450;29;20250;-71
2022/08/17 16:06:41;;;;;;;8.88;8.27;;;;;;;29.70;49.78;100974.53;6040631;29;20254;-70
2022/08/17 16:10:03;;;;;;;8.82;8.13;;;;;;;29.66;49.73;100976.16;6042747;29;20230;-69
2022/08/17 16:13:26;;;;;;;9.68;9.00;;;;;;;29.44;49.86;100974.44;6040855;29;20234;-71
2022/08/17 16:16:48;;;;;;;7.30;6.68;;;;;;;29.46;49.98;100977.81;6040455;29;20666;-71
2022/08/17 16:20:11;;;;;;;7.47;6.97;;;;;;;29.28;50.02;100970.63;6037005;29;20253;-69